createdAt,value
2019-04-04T00:00:58.805Z,9.20
2019-04-04T00:03:27.370Z,9.10
2019-04-04T00:05:56.735Z,9.10
2019-04-04T00:08:25.605Z,8.90
2019-04-04T00:10:54.184Z,9.00
2019-04-04T00:13:22.747Z,8.90
2019-04-04T00:15:51.329Z,8.90
2019-04-04T00:18:19.890Z,8.50
2019-04-04T00:20:48.469Z,8.50
2019-04-04T00:23:17.033Z,8.70
2019-04-04T00:25:45.613Z,8.90
2019-04-04T00:28:14.888Z,8.90
2019-04-04T00:30:44.162Z,9.00
2019-04-04T00:33:12.746Z,9.00
2019-04-04T00:35:41.310Z,8.80
2019-04-04T00:38:09.873Z,8.50
2019-04-04T00:40:40.048Z,8.30
2019-04-04T00:43:08.656Z,8.00
2019-04-04T00:45:37.236Z,8.00
2019-04-04T00:48:05.801Z,8.10
2019-04-04T00:50:34.870Z,8.10
2019-04-04T00:53:05.009Z,8.30
2019-04-04T00:55:33.938Z,8.30
2019-04-04T00:58:02.833Z,8.30
2019-04-04T01:00:31.376Z,8.30
2019-04-04T01:03:00.326Z,8.30
2019-04-04T01:05:30.116Z,8.30
2019-04-04T01:07:59.114Z,8.40
2019-04-04T01:10:27.674Z,8.70
2019-04-04T01:12:56.261Z,8.60
2019-04-04T01:15:24.818Z,8.50
2019-04-04T01:17:53.399Z,8.30
2019-04-04T01:20:21.957Z,8.20
2019-04-04T01:22:50.540Z,8.20
2019-04-04T01:25:19.097Z,8.10
2019-04-04T01:27:47.673Z,8.00
2019-04-04T01:30:16.378Z,8.10
2019-04-04T01:32:47.902Z,8.00
2019-04-04T01:35:15.230Z,7.80
2019-04-04T01:37:43.817Z,7.70
2019-04-04T01:40:12.441Z,7.80
2019-04-04T01:42:41.026Z,7.80
2019-04-04T01:45:12.761Z,7.80
2019-04-04T01:47:40.762Z,7.80
2019-04-04T01:50:09.549Z,7.80
2019-04-04T01:52:38.134Z,7.70
2019-04-04T01:55:06.694Z,7.60
2019-04-04T01:57:38.552Z,7.50
2019-04-04T02:00:08.001Z,7.40
2019-04-04T02:02:36.577Z,7.40
2019-04-04T02:05:06.179Z,7.40
2019-04-04T02:07:34.759Z,7.40
2019-04-04T02:10:05.471Z,7.30
2019-04-04T02:12:34.122Z,7.20
2019-04-04T02:15:03.054Z,7.10
2019-04-04T02:17:31.638Z,7.00
2019-04-04T02:20:00.198Z,7.00
2019-04-04T02:22:30.628Z,6.90
2019-04-04T02:24:58.985Z,6.80
2019-04-04T02:27:27.565Z,6.70
2019-04-04T02:29:56.126Z,6.80
2019-04-04T02:32:27.547Z,6.80
2019-04-04T02:34:56.242Z,6.70
2019-04-04T02:37:24.843Z,6.70
2019-04-04T02:39:53.417Z,6.60
2019-04-04T02:42:22.536Z,6.50
2019-04-04T02:44:51.143Z,6.50
2019-04-04T02:47:19.727Z,6.40
2019-04-04T02:49:48.295Z,6.40
2019-04-04T02:52:16.861Z,6.40
2019-04-04T02:54:45.830Z,6.50
2019-04-04T02:57:14.356Z,6.60
2019-04-04T02:59:42.920Z,6.70
2019-04-04T03:02:11.570Z,6.90
2019-04-04T03:04:40.127Z,7.10
2019-04-04T03:07:08.717Z,7.40
2019-04-04T03:09:41.780Z,7.60
2019-04-04T03:12:07.496Z,7.40
2019-04-04T03:14:37.397Z,7.50
2019-04-04T03:17:06.229Z,7.20
2019-04-04T03:19:34.778Z,6.60
2019-04-04T03:22:03.381Z,6.20
2019-04-04T03:24:31.933Z,5.90
2019-04-04T03:27:00.511Z,5.90
2019-04-04T03:29:29.071Z,5.90
2019-04-04T03:31:57.647Z,6.10
2019-04-04T03:34:26.400Z,6.30
2019-04-04T03:36:54.912Z,6.30
2019-04-04T03:39:23.494Z,6.20
2019-04-04T03:41:52.166Z,6.60
2019-04-04T03:44:20.820Z,6.90
2019-04-04T03:46:49.390Z,7.20
2019-04-04T03:49:17.971Z,7.50
2019-04-04T03:51:46.531Z,7.50
2019-04-04T03:54:16.785Z,7.40
2019-04-04T03:56:45.318Z,7.20
2019-04-04T03:59:13.899Z,7.00
2019-04-04T04:01:45.513Z,7.00
2019-04-04T04:04:12.698Z,6.90
2019-04-04T04:06:42.374Z,6.50
2019-04-04T04:09:11.487Z,6.60
2019-04-04T04:11:40.029Z,6.70
2019-04-04T04:14:08.602Z,6.90
2019-04-04T04:16:37.170Z,6.70
2019-04-04T04:19:05.746Z,7.00
2019-04-04T04:21:34.305Z,7.20
2019-04-04T04:24:02.881Z,7.30
2019-04-04T04:26:31.449Z,6.60
2019-04-04T04:29:00.041Z,6.10
2019-04-04T04:31:28.607Z,5.60
2019-04-04T04:34:00.498Z,5.10
2019-04-04T04:36:27.403Z,5.00
2019-04-04T04:38:59.923Z,5.40
2019-04-04T04:41:26.181Z,5.70
2019-04-04T04:43:54.764Z,5.70
2019-04-04T04:46:23.305Z,5.80
2019-04-04T04:48:51.893Z,5.80
2019-04-04T04:51:20.454Z,6.10
2019-04-04T04:53:50.657Z,6.30
2019-04-04T04:56:19.250Z,6.50
2019-04-04T04:58:47.834Z,6.50
2019-04-04T05:01:18.375Z,6.40
2019-04-04T05:03:46.627Z,6.40
2019-04-04T05:06:15.187Z,6.60
2019-04-04T05:08:43.757Z,6.80
2019-04-04T05:11:14.523Z,7.00
2019-04-04T05:13:42.554Z,6.90
2019-04-04T05:16:11.120Z,6.90
2019-04-04T05:18:39.697Z,7.00
2019-04-04T05:21:08.256Z,7.00
2019-04-04T05:23:36.866Z,6.80
2019-04-04T05:26:05.406Z,6.50
2019-04-04T05:28:33.986Z,6.50
2019-04-04T05:31:02.542Z,6.60
2019-04-04T05:33:31.652Z,6.50
2019-04-04T05:36:00.282Z,5.50
2019-04-04T05:38:28.862Z,5.80
2019-04-04T05:40:57.422Z,6.20
2019-04-04T05:43:26.008Z,6.20
2019-04-04T05:45:54.557Z,5.50
2019-04-04T05:48:23.530Z,5.10
2019-04-04T05:50:52.059Z,5.00
2019-04-04T05:53:21.572Z,5.30
2019-04-04T05:55:50.303Z,5.60
2019-04-04T05:58:21.792Z,5.60
2019-04-04T06:00:49.160Z,5.70
2019-04-04T06:03:17.742Z,5.90
2019-04-04T06:05:46.310Z,5.90
2019-04-04T06:08:14.909Z,6.00
2019-04-04T06:10:43.438Z,5.90
2019-04-04T06:13:12.023Z,6.10
2019-04-04T06:15:40.573Z,6.60
2019-04-04T06:18:11.271Z,6.90
2019-04-04T06:20:39.377Z,7.10
2019-04-04T06:23:07.931Z,7.20
2019-04-04T06:25:36.512Z,7.30
2019-04-04T06:28:05.073Z,7.40
2019-04-04T06:30:43.017Z,7.50
2019-04-04T06:33:04.987Z,7.40
2019-04-04T06:35:34.469Z,7.50
2019-04-04T06:38:03.027Z,7.70
2019-04-04T06:40:31.609Z,7.80
2019-04-04T06:43:00.166Z,8.00
2019-04-04T06:45:29.802Z,8.20
2019-04-04T06:47:58.428Z,8.40
2019-04-04T06:50:26.996Z,8.50
2019-04-04T06:52:56.675Z,8.60
2019-04-04T06:55:28.479Z,8.70
2019-04-04T06:57:55.512Z,8.60
2019-04-04T07:00:24.093Z,8.70
2019-04-04T07:02:55.253Z,8.80
2019-04-04T07:05:22.890Z,8.90
2019-04-04T07:07:51.454Z,8.90
2019-04-04T07:10:21.856Z,8.90
2019-04-04T07:12:50.247Z,8.80
2019-04-04T07:15:18.968Z,8.90
2019-04-04T07:17:47.597Z,9.00
2019-04-04T07:20:17.094Z,9.10
2019-04-04T07:22:46.156Z,9.20
2019-04-04T07:25:15.002Z,9.10
2019-04-04T07:27:45.336Z,9.20
2019-04-04T07:30:15.403Z,9.20
2019-04-04T07:32:44.249Z,9.30
2019-04-04T07:35:17.176Z,9.30
2019-04-04T07:37:46.257Z,9.20
2019-04-04T07:40:14.910Z,9.20
2019-04-04T07:42:47.946Z,9.20
2019-04-04T07:45:16.850Z,9.20
2019-04-04T07:47:47.514Z,9.60
2019-04-04T07:50:15.643Z,9.60
2019-04-04T07:52:44.218Z,9.60
2019-04-04T07:55:14.070Z,9.70
2019-04-04T07:57:42.629Z,9.90
2019-04-04T08:00:11.659Z,10.00
2019-04-04T08:02:40.217Z,10.20
2019-04-04T08:05:09.666Z,10.30
2019-04-04T08:07:38.221Z,10.30
2019-04-04T08:10:19.821Z,10.50
2019-04-04T08:12:38.265Z,10.30
2019-04-04T08:15:07.791Z,10.40
2019-04-04T08:17:37.916Z,10.30
2019-04-04T08:20:06.942Z,10.20
2019-04-04T08:22:35.510Z,10.40
2019-04-04T08:25:04.902Z,10.70
2019-04-04T08:27:33.461Z,10.90
2019-04-04T08:30:02.120Z,11.10
2019-04-04T08:32:30.677Z,11.10
2019-04-04T08:34:59.268Z,11.10
2019-04-04T08:37:27.917Z,10.90
2019-04-04T08:39:56.497Z,10.80
2019-04-04T08:42:25.062Z,10.60
2019-04-04T08:44:53.646Z,10.80
2019-04-04T08:47:22.282Z,10.80
2019-04-04T08:49:50.874Z,11.10
2019-04-04T08:52:20.887Z,11.30
2019-04-04T08:54:49.538Z,11.50
2019-04-04T08:57:18.114Z,11.70
2019-04-04T08:59:46.683Z,11.90
2019-04-04T09:02:15.250Z,12.10
2019-04-04T09:04:43.834Z,11.70
2019-04-04T09:07:12.465Z,11.00
2019-04-04T09:09:41.171Z,10.90
2019-04-04T09:12:09.812Z,10.70
2019-04-04T09:14:40.980Z,10.50
2019-04-04T09:17:08.606Z,10.80
2019-04-04T09:19:37.186Z,10.60
2019-04-04T09:22:05.770Z,10.70
2019-04-04T09:24:34.414Z,10.50
2019-04-04T09:27:02.994Z,10.60
2019-04-04T09:29:31.558Z,10.60
2019-04-04T09:32:00.142Z,10.70
2019-04-04T09:34:28.862Z,10.70
2019-04-04T09:36:57.443Z,10.60
2019-04-04T09:39:25.997Z,10.60
2019-04-04T09:41:54.577Z,10.50
2019-04-04T09:44:23.137Z,10.50
2019-04-04T09:47:04.583Z,10.60
2019-04-04T09:49:21.930Z,10.90
2019-04-04T09:51:50.505Z,10.80
2019-04-04T09:54:19.528Z,11.00
2019-04-04T09:56:48.245Z,11.00
2019-04-04T09:59:16.810Z,10.80
2019-04-04T10:01:45.385Z,10.70
2019-04-04T10:04:13.945Z,10.70
2019-04-04T10:06:42.526Z,10.80
2019-04-04T10:09:15.998Z,11.20
2019-04-04T10:11:41.443Z,11.00
2019-04-04T10:14:10.002Z,10.90
2019-04-04T10:16:38.572Z,10.90
2019-04-04T10:19:07.130Z,10.80
2019-04-04T10:21:35.710Z,10.90
2019-04-04T10:24:04.271Z,10.70
2019-04-04T10:26:32.905Z,10.80
2019-04-04T10:29:01.460Z,10.90
2019-04-04T10:31:30.037Z,11.00
2019-04-04T10:33:58.589Z,10.90
2019-04-04T10:36:27.165Z,10.70
2019-04-04T10:38:55.716Z,10.70
2019-04-04T10:41:24.293Z,10.70
2019-04-04T10:43:52.889Z,10.60
2019-04-04T10:46:21.496Z,10.70
2019-04-04T10:48:50.017Z,10.70
2019-04-04T10:51:18.600Z,10.80
2019-04-04T10:53:47.156Z,11.00
2019-04-04T10:56:15.730Z,11.10
2019-04-04T10:58:44.293Z,10.90
2019-04-04T11:01:12.941Z,10.80
2019-04-04T11:03:41.493Z,10.80
2019-04-04T11:06:10.077Z,10.70
2019-04-04T11:08:38.628Z,10.90
2019-04-04T11:11:07.205Z,10.80
2019-04-04T11:13:35.756Z,10.80
2019-04-04T11:16:04.408Z,10.80
2019-04-04T11:18:32.956Z,11.00
2019-04-04T11:21:01.532Z,10.90
2019-04-04T11:23:30.239Z,10.90
2019-04-04T11:25:58.797Z,10.90
2019-04-04T11:28:27.350Z,11.00
2019-04-04T11:30:55.925Z,11.00
2019-04-04T11:33:24.487Z,11.00
2019-04-04T11:35:53.067Z,11.00
2019-04-04T11:38:21.625Z,11.10
2019-04-04T11:40:50.206Z,11.50
2019-04-04T11:43:18.757Z,11.30
2019-04-04T11:45:47.332Z,11.20
2019-04-04T11:48:15.895Z,10.90
2019-04-04T11:50:44.461Z,10.80
2019-04-04T11:53:13.034Z,10.80
2019-04-04T11:55:41.591Z,10.90
2019-04-04T11:58:10.170Z,11.00
2019-04-04T12:00:43.103Z,10.90
2019-04-04T12:03:11.686Z,10.90
2019-04-04T12:05:40.237Z,10.80
2019-04-04T12:08:08.890Z,11.00
2019-04-04T12:10:37.449Z,11.20
2019-04-04T12:13:06.049Z,11.00
2019-04-04T12:15:34.681Z,10.90
2019-04-04T12:18:03.263Z,10.80
2019-04-04T12:20:31.819Z,10.80
2019-04-04T12:23:00.389Z,10.70
2019-04-04T12:25:28.946Z,10.90
2019-04-04T12:27:57.532Z,10.90
2019-04-04T12:30:26.087Z,11.00
2019-04-04T12:32:54.663Z,11.00
2019-04-04T12:35:23.231Z,11.10
2019-04-04T12:37:51.804Z,11.00
2019-04-04T12:40:21.295Z,11.00
2019-04-04T12:42:50.146Z,10.90
2019-04-04T12:45:18.779Z,11.40
2019-04-04T12:47:47.428Z,11.20
2019-04-04T12:50:16.053Z,11.20
2019-04-04T12:52:44.654Z,11.20
2019-04-04T12:55:13.268Z,11.10
2019-04-04T12:57:41.856Z,11.10
2019-04-04T13:00:10.873Z,11.10
2019-04-04T13:02:39.529Z,11.00
2019-04-04T13:05:08.825Z,11.10
2019-04-04T13:07:37.413Z,11.10
2019-04-04T13:10:11.759Z,11.00
2019-04-04T13:12:38.649Z,11.00
2019-04-04T13:15:09.253Z,11.00
2019-04-04T13:17:37.908Z,11.20
2019-04-04T13:20:07.901Z,11.20
2019-04-04T13:22:36.623Z,11.20
2019-04-04T13:25:08.925Z,11.10
2019-04-04T13:27:37.573Z,11.20
2019-04-04T13:30:10.371Z,11.30
2019-04-04T13:32:39.014Z,11.10
2019-04-04T13:35:07.910Z,11.10
2019-04-04T13:37:36.492Z,11.10
2019-04-04T13:40:09.037Z,11.30
2019-04-04T13:42:37.613Z,11.20
2019-04-04T13:45:07.205Z,11.30
2019-04-04T13:47:38.101Z,11.50
2019-04-04T13:50:08.273Z,11.40
2019-04-04T13:52:36.860Z,11.20
2019-04-04T13:55:06.855Z,11.10
2019-04-04T13:57:35.448Z,11.10
2019-04-04T14:00:07.149Z,11.10
2019-04-04T14:02:35.736Z,11.20
2019-04-04T14:05:10.162Z,11.30
2019-04-04T14:07:38.736Z,11.30
2019-04-04T14:10:08.134Z,11.10
2019-04-04T14:12:36.770Z,11.00
2019-04-04T14:15:10.146Z,11.20
2019-04-04T14:17:38.729Z,11.10
2019-04-04T14:20:09.101Z,11.10
2019-04-04T14:22:37.686Z,11.10
2019-04-04T14:25:06.573Z,11.00
2019-04-04T14:27:35.151Z,11.30
2019-04-04T14:30:04.946Z,11.20
2019-04-04T14:32:33.521Z,11.10
2019-04-04T14:35:02.073Z,11.10
2019-04-04T14:37:30.673Z,11.20
2019-04-04T14:39:59.242Z,11.50
2019-04-04T14:42:27.814Z,11.60
2019-04-04T14:44:56.374Z,11.60
2019-04-04T14:47:24.954Z,11.30
2019-04-04T14:49:53.509Z,11.20
2019-04-04T14:52:24.248Z,11.10
2019-04-04T14:54:52.938Z,11.10
2019-04-04T14:57:21.513Z,11.20
2019-04-04T14:59:50.068Z,11.20
2019-04-04T15:02:18.649Z,11.20
2019-04-04T15:04:48.117Z,11.10
2019-04-04T15:07:16.657Z,11.30
2019-04-04T15:09:45.218Z,11.30
2019-04-04T15:12:13.773Z,11.50
2019-04-04T15:14:42.361Z,11.40
2019-04-04T15:17:11.024Z,11.30
2019-04-04T15:19:39.607Z,11.30
2019-04-04T15:22:08.179Z,11.20
2019-04-04T15:24:36.769Z,11.30
2019-04-04T15:27:05.478Z,11.40
2019-04-04T15:29:34.013Z,11.40
2019-04-04T15:32:02.637Z,11.50
2019-04-04T15:34:31.221Z,11.50
2019-04-04T15:36:59.871Z,11.40
2019-04-04T15:39:28.430Z,11.50
2019-04-04T15:41:56.986Z,11.50
2019-04-04T15:44:25.834Z,11.50
2019-04-04T15:46:54.630Z,11.40
2019-04-04T15:49:23.285Z,11.40
2019-04-04T15:51:51.845Z,11.50
2019-04-04T15:54:20.437Z,11.40
2019-04-04T15:56:48.989Z,11.40
2019-04-04T15:59:17.566Z,11.50
2019-04-04T16:01:46.122Z,11.50
2019-04-04T16:04:14.701Z,11.60
2019-04-04T16:06:43.263Z,11.70
2019-04-04T16:09:11.843Z,12.00
2019-04-04T16:11:49.401Z,12.00
2019-04-04T16:14:10.652Z,11.90
2019-04-04T16:16:39.209Z,12.00
2019-04-04T16:19:08.092Z,12.10
2019-04-04T16:21:56.066Z,12.00
2019-04-04T16:24:24.657Z,12.00
2019-04-04T16:26:53.214Z,11.90
2019-04-04T16:29:21.962Z,11.90
2019-04-04T16:31:50.526Z,11.70
2019-04-04T16:34:19.102Z,11.50
2019-04-04T16:36:47.657Z,11.40
2019-04-04T16:39:16.233Z,11.40
2019-04-04T16:41:44.935Z,11.40
2019-04-04T16:44:13.505Z,11.40
2019-04-04T16:46:42.061Z,11.50
2019-04-04T16:49:10.708Z,11.90
2019-04-04T16:51:39.276Z,12.10
2019-04-04T16:54:08.768Z,12.10
2019-04-04T16:56:37.558Z,11.90
2019-04-04T16:59:07.851Z,11.80
2019-04-04T17:01:36.864Z,11.70
2019-04-04T17:04:05.539Z,11.60
2019-04-04T17:06:34.103Z,11.50
2019-04-04T17:09:03.486Z,11.40
2019-04-04T17:11:32.019Z,11.30
2019-04-04T17:14:00.606Z,11.30
2019-04-04T17:16:29.485Z,11.30
2019-04-04T17:18:58.069Z,11.30
2019-04-04T17:21:27.856Z,11.50
2019-04-04T17:23:56.463Z,11.40
2019-04-04T17:26:25.043Z,11.50
2019-04-04T17:28:53.928Z,11.60
2019-04-04T17:31:22.749Z,11.60
2019-04-04T17:33:51.597Z,11.70
2019-04-04T17:36:21.439Z,11.60
2019-04-04T17:38:50.212Z,11.50
2019-04-04T17:41:18.782Z,11.50
2019-04-04T17:43:47.446Z,11.30
2019-04-04T17:46:16.024Z,11.30
2019-04-04T17:48:45.045Z,11.30
2019-04-04T17:51:13.679Z,11.30
2019-04-04T17:53:42.416Z,11.30
2019-04-04T17:56:11.120Z,11.20
2019-04-04T17:58:39.712Z,11.20
2019-04-04T18:01:09.985Z,11.10
2019-04-04T18:03:38.622Z,11.10
2019-04-04T18:06:07.275Z,11.10
2019-04-04T18:08:35.842Z,10.90
2019-04-04T18:11:04.792Z,10.90
2019-04-04T18:13:33.616Z,10.90
2019-04-04T18:16:02.267Z,10.90
2019-04-04T18:18:30.834Z,10.80
2019-04-04T18:20:59.422Z,10.90
2019-04-04T18:23:28.455Z,10.80
2019-04-04T18:25:57.047Z,10.80
2019-04-04T18:28:25.629Z,10.90
2019-04-04T18:30:54.218Z,10.80
2019-04-04T18:33:22.919Z,10.90
2019-04-04T18:35:51.938Z,10.90
2019-04-04T18:38:20.693Z,10.80
2019-04-04T18:40:49.204Z,10.80
2019-04-04T18:43:18.106Z,10.70
2019-04-04T18:45:46.692Z,10.70
2019-04-04T18:48:15.260Z,10.70
2019-04-04T18:50:43.838Z,10.60
2019-04-04T18:53:12.393Z,10.70
2019-04-04T18:55:40.969Z,10.70
2019-04-04T18:58:09.542Z,10.70
2019-04-04T19:00:38.128Z,10.60
2019-04-04T19:03:06.693Z,10.60
2019-04-04T19:05:35.464Z,10.60
2019-04-04T19:08:04.169Z,10.50
2019-04-04T19:10:32.859Z,10.50
2019-04-04T19:13:05.637Z,10.50
2019-04-04T19:15:31.703Z,10.70
2019-04-04T19:18:00.263Z,11.00
2019-04-04T19:20:28.863Z,11.20
2019-04-04T19:22:57.450Z,11.50
2019-04-04T19:25:26.039Z,11.60
2019-04-04T19:27:54.606Z,11.50
2019-04-04T19:30:23.391Z,11.40
2019-04-04T19:32:52.036Z,11.30
2019-04-04T19:35:20.637Z,11.30
2019-04-04T19:37:59.400Z,11.50
2019-04-04T19:40:20.187Z,11.50
2019-04-04T19:42:48.821Z,11.50
2019-04-04T19:45:17.842Z,11.30
2019-04-04T19:47:46.397Z,11.10
2019-04-04T19:50:15.226Z,11.00
2019-04-04T19:52:43.799Z,10.80
2019-04-04T19:55:12.472Z,10.70
2019-04-04T19:57:41.030Z,10.60
2019-04-04T20:00:10.827Z,10.60
2019-04-04T20:02:39.391Z,10.50
2019-04-04T20:05:08.318Z,10.40
2019-04-04T20:07:36.886Z,10.30
2019-04-04T20:10:06.513Z,10.20
2019-04-04T20:12:35.077Z,10.10
2019-04-04T20:15:05.058Z,10.10
2019-04-04T20:17:33.586Z,10.00
2019-04-04T20:20:02.167Z,9.90
2019-04-04T20:22:30.726Z,9.80
2019-04-04T20:24:59.318Z,9.80
2019-04-04T20:27:27.878Z,9.70
2019-04-04T20:29:56.461Z,9.60
2019-04-04T20:32:25.023Z,9.50
2019-04-04T20:34:53.609Z,9.50
2019-04-04T20:37:22.183Z,9.40
2019-04-04T20:39:50.751Z,9.30
2019-04-04T20:42:19.334Z,9.20
2019-04-04T20:44:47.906Z,9.20
2019-04-04T20:47:16.494Z,9.10
2019-04-04T20:49:45.054Z,9.10
2019-04-04T20:52:13.641Z,9.10
2019-04-04T20:54:42.193Z,9.10
2019-04-04T20:57:10.782Z,9.20
2019-04-04T20:59:39.351Z,9.20
2019-04-04T21:02:07.938Z,9.20
2019-04-04T21:04:36.498Z,9.20
2019-04-04T21:07:05.145Z,9.30
2019-04-04T21:09:33.705Z,9.30
2019-04-04T21:12:02.295Z,9.20
2019-04-04T21:14:30.866Z,9.20
2019-04-04T21:16:59.457Z,9.20
2019-04-04T21:19:28.033Z,9.20
2019-04-04T21:21:56.617Z,9.20
2019-04-04T21:24:25.174Z,9.20
2019-04-04T21:26:53.757Z,9.10
2019-04-04T21:29:22.323Z,9.10
2019-04-04T21:31:50.914Z,9.10
2019-04-04T21:34:19.474Z,9.10
2019-04-04T21:36:48.052Z,9.00
2019-04-04T21:39:16.616Z,9.00
2019-04-04T21:41:45.206Z,8.90
2019-04-04T21:44:13.770Z,8.90
2019-04-04T21:46:42.358Z,8.90
2019-04-04T21:49:10.917Z,8.90
2019-04-04T21:51:39.507Z,9.00
2019-04-04T21:54:08.074Z,8.90
2019-04-04T21:56:36.662Z,8.90
2019-04-04T21:59:05.231Z,8.90
2019-04-04T22:01:33.811Z,8.80
2019-04-04T22:04:02.374Z,8.90
2019-04-04T22:06:30.965Z,8.90
2019-04-04T22:08:59.533Z,8.90
2019-04-04T22:11:28.122Z,8.80
2019-04-04T22:13:56.691Z,8.80
2019-04-04T22:16:25.347Z,8.80
2019-04-04T22:18:53.917Z,8.70
2019-04-04T22:21:22.506Z,8.70
2019-04-04T22:23:51.078Z,8.70
2019-04-04T22:26:19.662Z,8.70
2019-04-04T22:28:48.218Z,8.60
2019-04-04T22:31:16.807Z,8.60
2019-04-04T22:33:45.371Z,8.60
2019-04-04T22:36:13.924Z,8.60
2019-04-04T22:38:42.513Z,8.60
2019-04-04T22:41:11.074Z,8.50
2019-04-04T22:43:39.657Z,8.40
2019-04-04T22:46:08.213Z,8.30
2019-04-04T22:48:36.789Z,8.30
2019-04-04T22:51:05.349Z,8.20
2019-04-04T22:53:33.938Z,8.20
2019-04-04T22:56:02.498Z,8.20
2019-04-04T22:58:31.093Z,8.20
2019-04-04T23:00:59.658Z,8.20
2019-04-04T23:03:29.523Z,8.20
2019-04-04T23:05:58.073Z,8.20
2019-04-04T23:08:26.655Z,8.10
2019-04-04T23:10:55.217Z,8.10
2019-04-04T23:13:23.801Z,8.10
2019-04-04T23:15:52.370Z,8.00
2019-04-04T23:18:20.949Z,8.10
2019-04-04T23:20:49.514Z,8.10
2019-04-04T23:23:18.102Z,8.10
2019-04-04T23:25:46.662Z,8.10
2019-04-04T23:28:15.245Z,8.10
2019-04-04T23:30:43.801Z,8.10
2019-04-04T23:33:12.384Z,8.10
2019-04-04T23:35:41.217Z,8.10
2019-04-04T23:38:09.802Z,8.00
2019-04-04T23:40:38.383Z,8.00
2019-04-04T23:43:06.969Z,8.00
2019-04-04T23:45:35.538Z,8.10
2019-04-04T23:48:04.126Z,8.10
2019-04-04T23:50:32.689Z,8.10
2019-04-04T23:53:01.273Z,8.10
2019-04-04T23:55:29.834Z,8.10
2019-04-04T23:57:58.413Z,8.10
